Medora, Iowa
Current Conditions -  °F | °C
As of 7:54 PM on Wednesday 26 Nov 2014 (Local Time) from KDSM Reporting Station
Light Snow Light Snow  
Wind Chill: 19°   Ceiling: 800
Heat Index: 29°   Visibility: 2mi
Dew Point: 25°   Wind: 13mph
Humidity: 85%   Direction: 340°NNW
Pressure: 30.28"   Gusts: NA
Location:  41.3316°N, 93.579°W
Report Text: KDSM 270154Z 34011KT 2SM -SN BR OVC008 M02/M04 A3028 RMK AO2 SFC VIS 4 SLP263 P0001 T10171039
Loading
Personal Weather Stations






























Interactive Weather Map New forecast layout! Learn more

10-Day Weather Forecast

Advertisements
Track Severe Weather on mobile